sensor_id;sensor_type;location;lat;lon;timestamp;temperature;humidity
5344;DHT22;2694;48.950;8.970;2022-11-24T00:01:24;7.40;99.90
5344;DHT22;2694;48.950;8.970;2022-11-24T00:03:55;7.20;99.90
5344;DHT22;2694;48.950;8.970;2022-11-24T00:06:23;7.20;99.90
5344;DHT22;2694;48.950;8.970;2022-11-24T00:08:51;7.10;99.90
5344;DHT22;2694;48.950;8.970;2022-11-24T00:11:21;7.00;99.90
5344;DHT22;2694;48.950;8.970;2022-11-24T00:13:49;6.90;99.90
5344;DHT22;2694;48.950;8.970;2022-11-24T00:16:18;6.90;99.90
5344;DHT22;2694;48.950;8.970;2022-11-24T00:18:47;6.90;99.90
5344;DHT22;2694;48.950;8.970;2022-11-24T00:21:17;6.90;99.90
5344;DHT22;2694;48.950;8.970;2022-11-24T00:23:45;6.90;99.90
5344;DHT22;2694;48.950;8.970;2022-11-24T00:26:14;6.80;99.90
5344;DHT22;2694;48.950;8.970;2022-11-24T00:28:46;7.70;99.90
5344;DHT22;2694;48.950;8.970;2022-11-24T00:31:16;6.80;99.90
5344;DHT22;2694;48.950;8.970;2022-11-24T00:33:44;6.80;99.90
5344;DHT22;2694;48.950;8.970;2022-11-24T00:36:13;6.70;99.90
5344;DHT22;2694;48.950;8.970;2022-11-24T00:38:40;6.10;99.90
5344;DHT22;2694;48.950;8.970;2022-11-24T00:41:07;7.00;99.90
5344;DHT22;2694;48.950;8.970;2022-11-24T00:43:34;7.10;99.90
5344;DHT22;2694;48.950;8.970;2022-11-24T00:46:07;7.20;99.90
5344;DHT22;2694;48.950;8.970;2022-11-24T00:48:35;7.40;99.90
5344;DHT22;2694;48.950;8.970;2022-11-24T00:51:04;7.50;99.90
5344;DHT22;2694;48.950;8.970;2022-11-24T00:53:32;7.60;99.90
5344;DHT22;2694;48.950;8.970;2022-11-24T00:56:00;7.60;99.90
5344;DHT22;2694;48.950;8.970;2022-11-24T00:58:29;7.60;99.90
5344;DHT22;2694;48.950;8.970;2022-11-24T01:01:01;7.60;99.90
5344;DHT22;2694;48.950;8.970;2022-11-24T01:03:30;7.50;99.90
5344;DHT22;2694;48.950;8.970;2022-11-24T01:06:02;7.50;99.90
5344;DHT22;2694;48.950;8.970;2022-11-24T01:08:39;7.50;99.90
5344;DHT22;2694;48.950;8.970;2022-11-24T01:11:08;7.40;99.90
5344;DHT22;2694;48.950;8.970;2022-11-24T01:13:36;7.50;99.90
5344;DHT22;2694;48.950;8.970;2022-11-24T01:16:03;7.40;99.90
5344;DHT22;2694;48.950;8.970;2022-11-24T01:18:35;7.40;99.90
5344;DHT22;2694;48.950;8.970;2022-11-24T01:21:04;7.40;99.90
5344;DHT22;2694;48.950;8.970;2022-11-24T01:23:31;7.50;99.90
5344;DHT22;2694;48.950;8.970;2022-11-24T01:25:58;7.50;99.90
5344;DHT22;2694;48.950;8.970;2022-11-24T01:28:25;7.50;99.90
5344;DHT22;2694;48.950;8.970;2022-11-24T01:30:56;7.50;99.90
5344;DHT22;2694;48.950;8.970;2022-11-24T01:33:27;7.50;99.90
5344;DHT22;2694;48.950;8.970;2022-11-24T01:35:56;7.50;99.90
5344;DHT22;2694;48.950;8.970;2022-11-24T01:38:24;7.60;99.90
5344;DHT22;2694;48.950;8.970;2022-11-24T01:41:00;7.60;99.90
5344;DHT22;2694;48.950;8.970;2022-11-24T01:43:34;7.60;99.90
5344;DHT22;2694;48.950;8.970;2022-11-24T01:46:10;7.60;99.90
5344;DHT22;2694;48.950;8.970;2022-11-24T01:48:50;7.60;99.90
5344;DHT22;2694;48.950;8.970;2022-11-24T01:51:25;7.60;99.90
5344;DHT22;2694;48.950;8.970;2022-11-24T01:53:56;7.60;99.90
5344;DHT22;2694;48.950;8.970;2022-11-24T01:56:25;7.50;99.90
5344;DHT22;2694;48.950;8.970;2022-11-24T01:58:55;7.50;99.90
5344;DHT22;2694;48.950;8.970;2022-11-24T02:01:24;7.40;99.90
5344;DHT22;2694;48.950;8.970;2022-11-24T02:03:54;7.40;99.90
5344;DHT22;2694;48.950;8.970;2022-11-24T02:06:26;7.30;99.90
5344;DHT22;2694;48.950;8.970;2022-11-24T02:08:59;7.20;99.90
5344;DHT22;2694;48.950;8.970;2022-11-24T02:11:33;7.20;99.90
5344;DHT22;2694;48.950;8.970;2022-11-24T02:14:01;7.10;99.90
5344;DHT22;2694;48.950;8.970;2022-11-24T02:16:31;7.00;99.90
5344;DHT22;2694;48.950;8.970;2022-11-24T02:19:02;7.00;99.90
5344;DHT22;2694;48.950;8.970;2022-11-24T02:21:31;7.10;99.90
5344;DHT22;2694;48.950;8.970;2022-11-24T02:24:02;7.10;99.90
5344;DHT22;2694;48.950;8.970;2022-11-24T02:26:41;7.10;99.90
5344;DHT22;2694;48.950;8.970;2022-11-24T02:29:10;7.20;99.90
5344;DHT22;2694;48.950;8.970;2022-11-24T02:31:42;7.10;99.90
5344;DHT22;2694;48.950;8.970;2022-11-24T02:34:11;7.10;99.90
5344;DHT22;2694;48.950;8.970;2022-11-24T02:36:39;7.00;99.90
5344;DHT22;2694;48.950;8.970;2022-11-24T02:39:09;6.90;99.90
5344;DHT22;2694;48.950;8.970;2022-11-24T02:41:40;6.80;99.90
5344;DHT22;2694;48.950;8.970;2022-11-24T02:44:08;6.80;99.90
5344;DHT22;2694;48.950;8.970;2022-11-24T02:46:36;6.80;99.90
5344;DHT22;2694;48.950;8.970;2022-11-24T02:49:04;6.90;99.90
5344;DHT22;2694;48.950;8.970;2022-11-24T02:51:31;6.80;99.90
5344;DHT22;2694;48.950;8.970;2022-11-24T02:54:00;6.80;99.90
5344;DHT22;2694;48.950;8.970;2022-11-24T02:56:28;6.70;99.90
5344;DHT22;2694;48.950;8.970;2022-11-24T02:58:58;6.70;99.90
5344;DHT22;2694;48.950;8.970;2022-11-24T03:01:25;6.70;99.90
5344;DHT22;2694;48.950;8.970;2022-11-24T03:03:53;6.70;99.90
5344;DHT22;2694;48.950;8.970;2022-11-24T03:06:21;6.70;99.90
5344;DHT22;2694;48.950;8.970;2022-11-24T03:08:48;6.70;99.90
5344;DHT22;2694;48.950;8.970;2022-11-24T03:11:18;6.70;99.90
5344;DHT22;2694;48.950;8.970;2022-11-24T03:13:45;6.70;99.90
5344;DHT22;2694;48.950;8.970;2022-11-24T03:16:17;6.70;99.90
5344;DHT22;2694;48.950;8.970;2022-11-24T03:18:44;6.70;99.90
5344;DHT22;2694;48.950;8.970;2022-11-24T03:21:13;6.70;99.90
5344;DHT22;2694;48.950;8.970;2022-11-24T03:23:43;6.60;99.90
5344;DHT22;2694;48.950;8.970;2022-11-24T03:26:12;6.50;99.90
5344;DHT22;2694;48.950;8.970;2022-11-24T03:28:42;6.40;99.90
5344;DHT22;2694;48.950;8.970;2022-11-24T03:31:10;6.30;99.90
5344;DHT22;2694;48.950;8.970;2022-11-24T03:33:39;6.30;99.90
5344;DHT22;2694;48.950;8.970;2022-11-24T03:36:08;6.40;99.90
5344;DHT22;2694;48.950;8.970;2022-11-24T03:38:37;6.40;99.90
5344;DHT22;2694;48.950;8.970;2022-11-24T03:41:04;6.40;99.90
5344;DHT22;2694;48.950;8.970;2022-11-24T03:43:31;6.40;99.90
5344;DHT22;2694;48.950;8.970;2022-11-24T03:46:00;6.50;99.90
5344;DHT22;2694;48.950;8.970;2022-11-24T03:48:27;6.50;99.90
5344;DHT22;2694;48.950;8.970;2022-11-24T03:50:57;6.60;99.90
5344;DHT22;2694;48.950;8.970;2022-11-24T03:53:26;6.70;99.90
5344;DHT22;2694;48.950;8.970;2022-11-24T03:55:54;6.70;99.90
5344;DHT22;2694;48.950;8.970;2022-11-24T03:58:22;6.70;99.90
5344;DHT22;2694;48.950;8.970;2022-11-24T04:00:50;6.90;99.90
5344;DHT22;2694;48.950;8.970;2022-11-24T04:03:19;6.80;99.90
5344;DHT22;2694;48.950;8.970;2022-11-24T04:05:46;6.70;99.90
5344;DHT22;2694;48.950;8.970;2022-11-24T04:08:16;6.70;99.90
5344;DHT22;2694;48.950;8.970;2022-11-24T04:10:49;6.80;99.90
5344;DHT22;2694;48.950;8.970;2022-11-24T04:13:18;6.80;99.90
5344;DHT22;2694;48.950;8.970;2022-11-24T04:15:44;6.80;99.90
5344;DHT22;2694;48.950;8.970;2022-11-24T04:18:12;6.80;99.90
5344;DHT22;2694;48.950;8.970;2022-11-24T04:20:40;7.00;99.90
5344;DHT22;2694;48.950;8.970;2022-11-24T04:23:09;7.00;99.90
5344;DHT22;2694;48.950;8.970;2022-11-24T04:25:38;7.10;99.90
5344;DHT22;2694;48.950;8.970;2022-11-24T04:28:07;7.20;99.90
5344;DHT22;2694;48.950;8.970;2022-11-24T04:30:35;7.20;99.90
5344;DHT22;2694;48.950;8.970;2022-11-24T04:33:04;7.10;99.90
5344;DHT22;2694;48.950;8.970;2022-11-24T04:35:32;7.20;99.90
5344;DHT22;2694;48.950;8.970;2022-11-24T04:38:01;7.20;99.90
5344;DHT22;2694;48.950;8.970;2022-11-24T04:40:28;7.30;99.90
5344;DHT22;2694;48.950;8.970;2022-11-24T04:42:57;7.40;99.90
5344;DHT22;2694;48.950;8.970;2022-11-24T04:45:25;7.50;99.90
5344;DHT22;2694;48.950;8.970;2022-11-24T04:47:55;7.50;99.90
5344;DHT22;2694;48.950;8.970;2022-11-24T04:50:22;7.50;99.90
5344;DHT22;2694;48.950;8.970;2022-11-24T04:52:51;7.50;99.90
5344;DHT22;2694;48.950;8.970;2022-11-24T04:55:19;7.40;99.90
5344;DHT22;2694;48.950;8.970;2022-11-24T04:57:46;7.40;99.90
5344;DHT22;2694;48.950;8.970;2022-11-24T05:00:17;7.40;99.90
5344;DHT22;2694;48.950;8.970;2022-11-24T05:02:46;7.40;99.90
5344;DHT22;2694;48.950;8.970;2022-11-24T05:05:14;7.30;99.90
5344;DHT22;2694;48.950;8.970;2022-11-24T05:07:42;7.40;99.90
5344;DHT22;2694;48.950;8.970;2022-11-24T05:10:12;7.30;99.90
5344;DHT22;2694;48.950;8.970;2022-11-24T05:12:57;7.20;99.90
5344;DHT22;2694;48.950;8.970;2022-11-24T05:15:26;7.10;99.90
5344;DHT22;2694;48.950;8.970;2022-11-24T05:17:54;7.00;99.90
5344;DHT22;2694;48.950;8.970;2022-11-24T05:20:25;7.00;99.90
5344;DHT22;2694;48.950;8.970;2022-11-24T05:22:53;7.00;99.90
5344;DHT22;2694;48.950;8.970;2022-11-24T05:25:26;6.90;99.90
5344;DHT22;2694;48.950;8.970;2022-11-24T05:27:53;6.90;99.90
5344;DHT22;2694;48.950;8.970;2022-11-24T05:30:23;6.90;99.90
5344;DHT22;2694;48.950;8.970;2022-11-24T05:32:51;6.90;99.90
5344;DHT22;2694;48.950;8.970;2022-11-24T05:35:20;7.00;99.90
5344;DHT22;2694;48.950;8.970;2022-11-24T05:37:49;7.00;99.90
5344;DHT22;2694;48.950;8.970;2022-11-24T05:40:16;7.10;99.90
5344;DHT22;2694;48.950;8.970;2022-11-24T05:42:44;7.10;99.90
5344;DHT22;2694;48.950;8.970;2022-11-24T05:45:14;7.10;99.90
5344;DHT22;2694;48.950;8.970;2022-11-24T05:47:42;7.20;99.90
5344;DHT22;2694;48.950;8.970;2022-11-24T05:50:13;7.20;99.90
5344;DHT22;2694;48.950;8.970;2022-11-24T05:52:40;7.20;99.90
5344;DHT22;2694;48.950;8.970;2022-11-24T05:55:09;7.20;99.90
5344;DHT22;2694;48.950;8.970;2022-11-24T05:57:37;7.10;99.90
5344;DHT22;2694;48.950;8.970;2022-11-24T06:00:05;7.10;99.90
5344;DHT22;2694;48.950;8.970;2022-11-24T06:02:32;7.00;99.90
5344;DHT22;2694;48.950;8.970;2022-11-24T06:05:00;7.10;99.90
5344;DHT22;2694;48.950;8.970;2022-11-24T06:07:30;7.20;99.90
5344;DHT22;2694;48.950;8.970;2022-11-24T06:09:58;7.20;99.90
5344;DHT22;2694;48.950;8.970;2022-11-24T06:12:29;7.10;99.90
5344;DHT22;2694;48.950;8.970;2022-11-24T06:14:57;7.00;99.90
5344;DHT22;2694;48.950;8.970;2022-11-24T06:17:26;7.00;99.90
5344;DHT22;2694;48.950;8.970;2022-11-24T06:19:53;6.90;99.90
5344;DHT22;2694;48.950;8.970;2022-11-24T06:22:22;7.00;99.90
5344;DHT22;2694;48.950;8.970;2022-11-24T06:24:51;6.90;99.90
5344;DHT22;2694;48.950;8.970;2022-11-24T06:27:19;7.00;99.90
5344;DHT22;2694;48.950;8.970;2022-11-24T06:29:46;7.00;99.90
5344;DHT22;2694;48.950;8.970;2022-11-24T06:32:16;6.90;99.90
5344;DHT22;2694;48.950;8.970;2022-11-24T06:34:44;7.00;99.90
5344;DHT22;2694;48.950;8.970;2022-11-24T06:37:14;6.90;99.90
5344;DHT22;2694;48.950;8.970;2022-11-24T06:39:42;7.00;99.90
5344;DHT22;2694;48.950;8.970;2022-11-24T06:42:19;6.90;99.90
5344;DHT22;2694;48.950;8.970;2022-11-24T06:44:47;7.00;99.90
5344;DHT22;2694;48.950;8.970;2022-11-24T06:47:14;6.90;99.90
5344;DHT22;2694;48.950;8.970;2022-11-24T06:49:44;7.00;99.90
5344;DHT22;2694;48.950;8.970;2022-11-24T06:52:13;6.90;99.90
5344;DHT22;2694;48.950;8.970;2022-11-24T06:54:44;6.90;99.90
5344;DHT22;2694;48.950;8.970;2022-11-24T06:57:11;6.90;99.90
5344;DHT22;2694;48.950;8.970;2022-11-24T06:59:41;7.00;99.90
5344;DHT22;2694;48.950;8.970;2022-11-24T07:02:09;7.00;99.90
5344;DHT22;2694;48.950;8.970;2022-11-24T07:04:37;7.00;99.90
5344;DHT22;2694;48.950;8.970;2022-11-24T07:07:07;7.00;99.90
5344;DHT22;2694;48.950;8.970;2022-11-24T07:09:34;7.00;99.90
5344;DHT22;2694;48.950;8.970;2022-11-24T07:12:02;7.00;99.90
5344;DHT22;2694;48.950;8.970;2022-11-24T07:14:30;7.20;99.90
5344;DHT22;2694;48.950;8.970;2022-11-24T07:16:59;7.30;99.90
5344;DHT22;2694;48.950;8.970;2022-11-24T07:19:27;7.30;99.90
5344;DHT22;2694;48.950;8.970;2022-11-24T07:21:56;7.40;99.90
5344;DHT22;2694;48.950;8.970;2022-11-24T07:24:23;7.40;99.90
5344;DHT22;2694;48.950;8.970;2022-11-24T07:26:50;7.40;99.90
5344;DHT22;2694;48.950;8.970;2022-11-24T07:29:20;7.50;99.90
5344;DHT22;2694;48.950;8.970;2022-11-24T07:31:49;7.50;99.90
5344;DHT22;2694;48.950;8.970;2022-11-24T07:34:18;7.50;99.90
5344;DHT22;2694;48.950;8.970;2022-11-24T07:36:45;7.50;99.90
5344;DHT22;2694;48.950;8.970;2022-11-24T07:39:12;7.50;99.90
5344;DHT22;2694;48.950;8.970;2022-11-24T07:41:42;7.50;99.90
5344;DHT22;2694;48.950;8.970;2022-11-24T07:44:11;7.60;99.90
5344;DHT22;2694;48.950;8.970;2022-11-24T07:46:39;7.60;99.90
5344;DHT22;2694;48.950;8.970;2022-11-24T07:49:09;7.50;99.90
5344;DHT22;2694;48.950;8.970;2022-11-24T07:51:37;7.40;99.90
5344;DHT22;2694;48.950;8.970;2022-11-24T07:54:04;7.40;99.90
5344;DHT22;2694;48.950;8.970;2022-11-24T07:56:31;7.40;99.90
5344;DHT22;2694;48.950;8.970;2022-11-24T07:59:00;7.30;99.90
5344;DHT22;2694;48.950;8.970;2022-11-24T08:01:30;7.20;99.90
5344;DHT22;2694;48.950;8.970;2022-11-24T08:04:05;7.20;99.90
5344;DHT22;2694;48.950;8.970;2022-11-24T08:06:33;7.20;99.90
5344;DHT22;2694;48.950;8.970;2022-11-24T08:09:05;7.20;99.90
5344;DHT22;2694;48.950;8.970;2022-11-24T08:11:34;7.20;99.90
5344;DHT22;2694;48.950;8.970;2022-11-24T08:14:01;7.20;99.90
5344;DHT22;2694;48.950;8.970;2022-11-24T08:16:28;7.20;99.90
5344;DHT22;2694;48.950;8.970;2022-11-24T08:18:56;7.30;99.90
5344;DHT22;2694;48.950;8.970;2022-11-24T08:21:25;7.30;99.90
5344;DHT22;2694;48.950;8.970;2022-11-24T08:23:54;7.30;99.90
5344;DHT22;2694;48.950;8.970;2022-11-24T08:26:26;7.30;99.90
5344;DHT22;2694;48.950;8.970;2022-11-24T08:28:55;7.30;99.90
5344;DHT22;2694;48.950;8.970;2022-11-24T08:31:27;7.30;99.90
5344;DHT22;2694;48.950;8.970;2022-11-24T08:33:57;7.20;99.90
5344;DHT22;2694;48.950;8.970;2022-11-24T08:36:25;7.20;99.90
5344;DHT22;2694;48.950;8.970;2022-11-24T08:38:54;7.20;99.90
5344;DHT22;2694;48.950;8.970;2022-11-24T08:41:22;7.20;99.90
5344;DHT22;2694;48.950;8.970;2022-11-24T08:43:51;7.20;99.90
5344;DHT22;2694;48.950;8.970;2022-11-24T08:46:20;7.30;99.90
5344;DHT22;2694;48.950;8.970;2022-11-24T08:48:49;7.30;99.90
5344;DHT22;2694;48.950;8.970;2022-11-24T08:51:19;7.30;99.90
5344;DHT22;2694;48.950;8.970;2022-11-24T08:53:52;7.40;99.90
5344;DHT22;2694;48.950;8.970;2022-11-24T08:56:19;7.40;99.90
5344;DHT22;2694;48.950;8.970;2022-11-24T08:58:46;7.50;99.90
5344;DHT22;2694;48.950;8.970;2022-11-24T09:01:18;7.50;99.90
5344;DHT22;2694;48.950;8.970;2022-11-24T09:03:47;7.60;99.90
5344;DHT22;2694;48.950;8.970;2022-11-24T09:06:16;7.60;99.90
5344;DHT22;2694;48.950;8.970;2022-11-24T09:08:44;7.60;99.90
5344;DHT22;2694;48.950;8.970;2022-11-24T09:11:13;7.70;99.90
5344;DHT22;2694;48.950;8.970;2022-11-24T09:13:43;7.70;99.90
5344;DHT22;2694;48.950;8.970;2022-11-24T09:16:17;7.70;99.90
5344;DHT22;2694;48.950;8.970;2022-11-24T09:18:46;7.80;99.90
5344;DHT22;2694;48.950;8.970;2022-11-24T09:21:16;7.90;99.90
5344;DHT22;2694;48.950;8.970;2022-11-24T09:23:48;8.00;99.90
5344;DHT22;2694;48.950;8.970;2022-11-24T09:26:21;8.10;99.90
5344;DHT22;2694;48.950;8.970;2022-11-24T09:28:49;8.10;99.90
5344;DHT22;2694;48.950;8.970;2022-11-24T09:31:24;8.10;99.90
5344;DHT22;2694;48.950;8.970;2022-11-24T09:33:53;8.00;99.90
5344;DHT22;2694;48.950;8.970;2022-11-24T09:36:22;8.10;99.90
5344;DHT22;2694;48.950;8.970;2022-11-24T09:38:51;8.00;99.90
5344;DHT22;2694;48.950;8.970;2022-11-24T09:47:22;8.00;99.90
5344;DHT22;2694;48.950;8.970;2022-11-24T09:49:57;8.00;99.90
5344;DHT22;2694;48.950;8.970;2022-11-24T09:52:36;8.10;99.90
5344;DHT22;2694;48.950;8.970;2022-11-24T09:55:18;8.10;99.90
5344;DHT22;2694;48.950;8.970;2022-11-24T09:57:53;8.20;99.90
5344;DHT22;2694;48.950;8.970;2022-11-24T10:00:22;8.20;99.90
5344;DHT22;2694;48.950;8.970;2022-11-24T10:02:54;8.30;99.90
5344;DHT22;2694;48.950;8.970;2022-11-24T10:05:24;8.30;99.90
5344;DHT22;2694;48.950;8.970;2022-11-24T10:08:02;8.30;99.90
5344;DHT22;2694;48.950;8.970;2022-11-24T10:10:36;8.40;99.90
5344;DHT22;2694;48.950;8.970;2022-11-24T10:13:20;8.40;99.90
5344;DHT22;2694;48.950;8.970;2022-11-24T10:15:59;8.60;99.90
5344;DHT22;2694;48.950;8.970;2022-11-24T10:18:44;8.60;99.90
5344;DHT22;2694;48.950;8.970;2022-11-24T10:21:26;8.70;99.90
5344;DHT22;2694;48.950;8.970;2022-11-24T10:24:15;8.70;99.90
5344;DHT22;2694;48.950;8.970;2022-11-24T10:26:49;8.70;99.90
5344;DHT22;2694;48.950;8.970;2022-11-24T10:29:20;8.70;99.90
5344;DHT22;2694;48.950;8.970;2022-11-24T10:31:52;8.80;99.90
5344;DHT22;2694;48.950;8.970;2022-11-24T10:34:26;8.90;99.90
5344;DHT22;2694;48.950;8.970;2022-11-24T10:36:59;8.90;99.90
5344;DHT22;2694;48.950;8.970;2022-11-24T10:39:34;8.90;99.90
5344;DHT22;2694;48.950;8.970;2022-11-24T10:42:09;9.10;99.90
5344;DHT22;2694;48.950;8.970;2022-11-24T10:44:38;9.30;99.90
5344;DHT22;2694;48.950;8.970;2022-11-24T10:47:16;9.30;99.90
5344;DHT22;2694;48.950;8.970;2022-11-24T10:49:54;9.40;99.90
5344;DHT22;2694;48.950;8.970;2022-11-24T10:52:24;9.40;99.90
5344;DHT22;2694;48.950;8.970;2022-11-24T10:54:54;9.60;99.90
5344;DHT22;2694;48.950;8.970;2022-11-24T10:57:27;9.70;99.90
5344;DHT22;2694;48.950;8.970;2022-11-24T10:59:54;9.60;99.90
5344;DHT22;2694;48.950;8.970;2022-11-24T11:02:35;9.50;99.90
5344;DHT22;2694;48.950;8.970;2022-11-24T11:05:26;9.60;99.90
5344;DHT22;2694;48.950;8.970;2022-11-24T11:08:09;9.60;99.90
5344;DHT22;2694;48.950;8.970;2022-11-24T11:10:42;9.70;99.90
5344;DHT22;2694;48.950;8.970;2022-11-24T11:13:21;9.80;99.90
5344;DHT22;2694;48.950;8.970;2022-11-24T11:15:48;9.70;99.90
5344;DHT22;2694;48.950;8.970;2022-11-24T11:18:17;9.80;99.90
5344;DHT22;2694;48.950;8.970;2022-11-24T11:20:54;9.90;99.90
5344;DHT22;2694;48.950;8.970;2022-11-24T11:23:25;10.00;99.90
5344;DHT22;2694;48.950;8.970;2022-11-24T11:26:17;10.00;99.90
5344;DHT22;2694;48.950;8.970;2022-11-24T11:28:57;10.20;99.90
5344;DHT22;2694;48.950;8.970;2022-11-24T11:31:26;10.20;99.90
5344;DHT22;2694;48.950;8.970;2022-11-24T11:34:11;10.20;99.90
5344;DHT22;2694;48.950;8.970;2022-11-24T11:36:43;10.30;99.90
5344;DHT22;2694;48.950;8.970;2022-11-24T11:39:20;10.30;99.90
5344;DHT22;2694;48.950;8.970;2022-11-24T11:41:56;10.30;99.90
5344;DHT22;2694;48.950;8.970;2022-11-24T11:44:32;10.50;99.90
5344;DHT22;2694;48.950;8.970;2022-11-24T11:47:11;10.50;99.90
5344;DHT22;2694;48.950;8.970;2022-11-24T11:49:41;10.40;99.90
5344;DHT22;2694;48.950;8.970;2022-11-24T11:52:35;10.40;99.90
5344;DHT22;2694;48.950;8.970;2022-11-24T11:55:27;10.40;99.90
5344;DHT22;2694;48.950;8.970;2022-11-24T11:58:06;10.40;99.90
5344;DHT22;2694;48.950;8.970;2022-11-24T12:00:45;10.40;99.90
5344;DHT22;2694;48.950;8.970;2022-11-24T12:03:37;10.50;99.90
5344;DHT22;2694;48.950;8.970;2022-11-24T12:06:21;10.40;99.90
5344;DHT22;2694;48.950;8.970;2022-11-24T12:09:16;10.40;99.90
5344;DHT22;2694;48.950;8.970;2022-11-24T12:11:55;10.60;99.90
5344;DHT22;2694;48.950;8.970;2022-11-24T12:14:34;10.50;99.90
5344;DHT22;2694;48.950;8.970;2022-11-24T12:17:08;10.50;99.90
5344;DHT22;2694;48.950;8.970;2022-11-24T12:19:50;10.60;99.90
5344;DHT22;2694;48.950;8.970;2022-11-24T12:22:35;10.80;99.90
5344;DHT22;2694;48.950;8.970;2022-11-24T12:25:19;10.80;99.90
5344;DHT22;2694;48.950;8.970;2022-11-24T12:27:58;10.80;99.90
5344;DHT22;2694;48.950;8.970;2022-11-24T12:30:37;10.80;99.90
5344;DHT22;2694;48.950;8.970;2022-11-24T12:33:28;10.80;99.90
5344;DHT22;2694;48.950;8.970;2022-11-24T12:36:09;10.70;99.90
5344;DHT22;2694;48.950;8.970;2022-11-24T12:38:47;10.60;99.90
5344;DHT22;2694;48.950;8.970;2022-11-24T12:41:29;10.50;99.90
5344;DHT22;2694;48.950;8.970;2022-11-24T12:44:01;10.40;99.90
5344;DHT22;2694;48.950;8.970;2022-11-24T12:46:34;10.30;99.90
5344;DHT22;2694;48.950;8.970;2022-11-24T12:49:11;10.40;99.90
5344;DHT22;2694;48.950;8.970;2022-11-24T12:51:43;10.40;99.90
5344;DHT22;2694;48.950;8.970;2022-11-24T12:54:14;10.40;99.90
5344;DHT22;2694;48.950;8.970;2022-11-24T12:56:51;10.60;99.90
5344;DHT22;2694;48.950;8.970;2022-11-24T12:59:29;10.60;99.90
5344;DHT22;2694;48.950;8.970;2022-11-24T13:02:06;10.50;99.90
5344;DHT22;2694;48.950;8.970;2022-11-24T13:04:41;10.50;99.90
5344;DHT22;2694;48.950;8.970;2022-11-24T13:07:15;10.40;99.90
5344;DHT22;2694;48.950;8.970;2022-11-24T13:13:00;10.10;99.90
5344;DHT22;2694;48.950;8.970;2022-11-24T13:15:30;10.00;99.90
5344;DHT22;2694;48.950;8.970;2022-11-24T13:17:58;9.90;99.90
5344;DHT22;2694;48.950;8.970;2022-11-24T13:20:31;9.90;99.90
5344;DHT22;2694;48.950;8.970;2022-11-24T13:23:00;9.80;99.90
5344;DHT22;2694;48.950;8.970;2022-11-24T13:25:30;9.90;99.90
5344;DHT22;2694;48.950;8.970;2022-11-24T13:27:59;9.90;99.90
5344;DHT22;2694;48.950;8.970;2022-11-24T13:30:52;10.10;99.90
5344;DHT22;2694;48.950;8.970;2022-11-24T13:33:46;10.20;99.90
5344;DHT22;2694;48.950;8.970;2022-11-24T13:36:29;10.30;99.90
5344;DHT22;2694;48.950;8.970;2022-11-24T13:39:00;10.30;99.90
5344;DHT22;2694;48.950;8.970;2022-11-24T13:44:56;10.30;99.90
5344;DHT22;2694;48.950;8.970;2022-11-24T13:47:38;10.30;99.90
5344;DHT22;2694;48.950;8.970;2022-11-24T13:50:23;10.40;99.90
5344;DHT22;2694;48.950;8.970;2022-11-24T13:52:56;10.40;99.90
5344;DHT22;2694;48.950;8.970;2022-11-24T13:55:35;10.40;99.90
5344;DHT22;2694;48.950;8.970;2022-11-24T13:58:33;10.30;99.90
5344;DHT22;2694;48.950;8.970;2022-11-24T14:01:11;10.20;99.90
5344;DHT22;2694;48.950;8.970;2022-11-24T14:03:44;10.10;99.90
5344;DHT22;2694;48.950;8.970;2022-11-24T14:06:16;10.20;99.90
5344;DHT22;2694;48.950;8.970;2022-11-24T14:08:46;10.20;99.90
5344;DHT22;2694;48.950;8.970;2022-11-24T14:11:16;10.20;99.90
5344;DHT22;2694;48.950;8.970;2022-11-24T14:13:45;10.20;99.90
5344;DHT22;2694;48.950;8.970;2022-11-24T14:16:18;10.20;99.90
5344;DHT22;2694;48.950;8.970;2022-11-24T14:18:50;10.20;99.90
5344;DHT22;2694;48.950;8.970;2022-11-24T14:21:29;10.20;99.90
5344;DHT22;2694;48.950;8.970;2022-11-24T14:24:00;10.10;99.90
5344;DHT22;2694;48.950;8.970;2022-11-24T14:26:33;10.00;99.90
5344;DHT22;2694;48.950;8.970;2022-11-24T14:29:06;9.90;99.90
5344;DHT22;2694;48.950;8.970;2022-11-24T14:31:37;9.80;99.90
5344;DHT22;2694;48.950;8.970;2022-11-24T14:34:15;9.70;99.90
5344;DHT22;2694;48.950;8.970;2022-11-24T14:36:43;9.50;99.90
5344;DHT22;2694;48.950;8.970;2022-11-24T14:39:12;9.50;99.90
5344;DHT22;2694;48.950;8.970;2022-11-24T14:41:42;9.40;99.90
5344;DHT22;2694;48.950;8.970;2022-11-24T14:44:18;9.30;99.90
5344;DHT22;2694;48.950;8.970;2022-11-24T14:46:47;9.30;99.90
5344;DHT22;2694;48.950;8.970;2022-11-24T14:49:18;9.20;99.90
5344;DHT22;2694;48.950;8.970;2022-11-24T14:51:53;9.20;99.90
5344;DHT22;2694;48.950;8.970;2022-11-24T14:54:22;9.10;99.90
5344;DHT22;2694;48.950;8.970;2022-11-24T14:56:58;9.00;99.90
5344;DHT22;2694;48.950;8.970;2022-11-24T14:59:28;9.00;99.90
5344;DHT22;2694;48.950;8.970;2022-11-24T15:01:59;8.90;99.90
5344;DHT22;2694;48.950;8.970;2022-11-24T15:04:29;8.90;99.90
5344;DHT22;2694;48.950;8.970;2022-11-24T15:07:10;8.90;99.90
5344;DHT22;2694;48.950;8.970;2022-11-24T15:09:47;8.80;99.90
5344;DHT22;2694;48.950;8.970;2022-11-24T15:12:22;8.70;99.90
5344;DHT22;2694;48.950;8.970;2022-11-24T15:14:54;8.70;99.90
5344;DHT22;2694;48.950;8.970;2022-11-24T15:17:25;8.70;99.90
5344;DHT22;2694;48.950;8.970;2022-11-24T15:19:55;8.70;99.90
5344;DHT22;2694;48.950;8.970;2022-11-24T15:22:38;8.70;99.90
5344;DHT22;2694;48.950;8.970;2022-11-24T15:25:30;8.60;99.90
5344;DHT22;2694;48.950;8.970;2022-11-24T15:27:59;8.50;99.90
5344;DHT22;2694;48.950;8.970;2022-11-24T15:30:26;8.60;99.90
5344;DHT22;2694;48.950;8.970;2022-11-24T15:32:57;8.50;99.90
5344;DHT22;2694;48.950;8.970;2022-11-24T15:35:25;8.50;99.90
5344;DHT22;2694;48.950;8.970;2022-11-24T15:37:53;8.40;99.90
5344;DHT22;2694;48.950;8.970;2022-11-24T15:40:20;8.30;99.90
5344;DHT22;2694;48.950;8.970;2022-11-24T15:42:50;8.20;99.90
5344;DHT22;2694;48.950;8.970;2022-11-24T15:45:21;8.10;99.90
5344;DHT22;2694;48.950;8.970;2022-11-24T15:47:49;8.00;99.90
5344;DHT22;2694;48.950;8.970;2022-11-24T15:50:19;7.90;99.90
5344;DHT22;2694;48.950;8.970;2022-11-24T15:52:47;7.80;99.90
5344;DHT22;2694;48.950;8.970;2022-11-24T15:55:17;7.70;99.90
5344;DHT22;2694;48.950;8.970;2022-11-24T15:57:44;7.60;99.90
5344;DHT22;2694;48.950;8.970;2022-11-24T16:00:14;7.60;99.90
5344;DHT22;2694;48.950;8.970;2022-11-24T16:02:42;7.50;99.90
5344;DHT22;2694;48.950;8.970;2022-11-24T16:05:12;7.40;99.90
5344;DHT22;2694;48.950;8.970;2022-11-24T16:07:41;7.20;99.90
5344;DHT22;2694;48.950;8.970;2022-11-24T16:10:16;7.10;99.90
5344;DHT22;2694;48.950;8.970;2022-11-24T16:12:46;7.10;99.90
5344;DHT22;2694;48.950;8.970;2022-11-24T16:15:13;7.20;99.90
5344;DHT22;2694;48.950;8.970;2022-11-24T16:17:40;7.20;99.90
5344;DHT22;2694;48.950;8.970;2022-11-24T16:20:08;7.20;99.90
5344;DHT22;2694;48.950;8.970;2022-11-24T16:22:37;7.20;99.90
5344;DHT22;2694;48.950;8.970;2022-11-24T16:25:08;7.00;99.90
5344;DHT22;2694;48.950;8.970;2022-11-24T16:27:37;6.90;99.90
5344;DHT22;2694;48.950;8.970;2022-11-24T16:30:09;6.60;99.90
5344;DHT22;2694;48.950;8.970;2022-11-24T16:32:36;6.50;99.90
5344;DHT22;2694;48.950;8.970;2022-11-24T16:35:04;6.40;99.90
5344;DHT22;2694;48.950;8.970;2022-11-24T16:37:32;6.30;99.90
5344;DHT22;2694;48.950;8.970;2022-11-24T16:40:00;6.30;99.90
5344;DHT22;2694;48.950;8.970;2022-11-24T16:42:29;6.30;99.90
5344;DHT22;2694;48.950;8.970;2022-11-24T16:44:57;6.20;99.90
5344;DHT22;2694;48.950;8.970;2022-11-24T16:47:25;6.10;99.90
5344;DHT22;2694;48.950;8.970;2022-11-24T16:49:52;6.10;99.90
5344;DHT22;2694;48.950;8.970;2022-11-24T16:52:19;6.10;99.90
5344;DHT22;2694;48.950;8.970;2022-11-24T16:54:46;5.90;99.90